Time,TemperatureF,DewpointF,PressureIn,WindDirection,WindDirectionDegrees,WindSpeedMPH,WindSpeedGustMPH,Humidity,HourlyPrecipIn,Conditions,Clouds,dailyrainin,SoftwareType,DateUTC
2013-07-06 00:02:00,79.3,56.8,26.89,South,180,6.9,6.9,46,0.00,CLR,OVC,0.00,WeatherDisplay:10.37,2013-07-06 05:02:00,
2013-07-06 00:07:00,79.3,56.8,26.90,SW,225,12.7,12.7,46,0.00,CLR,OVC,0.00,WeatherDisplay:10.37,2013-07-06 05:07:00,
2013-07-06 00:12:00,79.2,56.6,26.89,South,180,8.1,8.1,46,0.00,CLR,OVC,0.00,WeatherDisplay:10.37,2013-07-06 05:12:00,
2013-07-06 00:17:00,79.2,56.0,26.89,SW,225,10.4,10.4,45,0.00,CLR,OVC,0.00,WeatherDisplay:10.37,2013-07-06 05:17:00,
2013-07-06 00:22:00,79.0,55.8,26.89,West,270,12.7,12.7,45,0.00,CLR,OVC,0.00,WeatherDisplay:10.37,2013-07-06 05:22:00,
2013-07-06 00:27:00,79.0,55.8,26.90,WSW,248,10.4,10.4,45,0.00,CLR,OVC,0.00,WeatherDisplay:10.37,2013-07-06 05:27:00,
2013-07-06 00:32:00,78.8,55.7,26.89,South,180,15.0,15.0,45,0.00,CLR,OVC,0.00,WeatherDisplay:10.37,2013-07-06 05:32:00,
2013-07-06 00:37:00,78.6,56.1,26.89,South,180,9.2,9.2,46,0.00,CLR,OVC,0.00,WeatherDisplay:10.37,2013-07-06 05:37:00,
2013-07-06 00:42:00,78.4,55.9,26.89,South,180,10.4,10.4,46,0.00,CLR,OVC,0.00,WeatherDisplay:10.37,2013-07-06 05:42:00,
2013-07-06 00:47:00,78.3,55.8,26.90,SW,225,8.1,8.1,46,0.00,CLR,OVC,0.00,WeatherDisplay:10.37,2013-07-06 05:47:00,
2013-07-06 00:52:00,78.3,55.8,26.89,NE,45,12.7,12.7,46,0.00,CLR,OVC,0.00,WeatherDisplay:10.37,2013-07-06 05:52:00,
2013-07-06 00:57:00,78.3,56.4,26.89,SW,225,10.4,10.4,47,0.00,CLR,OVC,0.00,WeatherDisplay:10.37,2013-07-06 05:57:00,
2013-07-06 01:02:00,78.3,56.4,26.89,SW,225,8.1,8.1,47,0.00,CLR,OVC,0.00,WeatherDisplay:10.37,2013-07-06 06:02:00,
2013-07-06 01:07:00,78.3,56.4,26.89,SW,225,8.1,8.1,47,0.00,CLR,OVC,0.00,WeatherDisplay:10.37,2013-07-06 06:07:00,
2013-07-06 01:12:00,77.5,55.7,26.90,South,180,9.2,9.2,47,0.00,CLR,OVC,0.00,WeatherDisplay:10.37,2013-07-06 06:12:00,
2013-07-06 01:17:00,77.5,55.7,26.90,South,180,8.1,8.1,47,0.00,CLR,OVC,0.00,WeatherDisplay:10.37,2013-07-06 06:17:00,
2013-07-06 01:22:00,77.4,55.6,26.90,SW,225,8.1,8.1,47,0.00,CLR,OVC,0.00,WeatherDisplay:10.37,2013-07-06 06:22:00,
2013-07-06 01:27:00,77.2,55.4,26.90,SW,225,8.1,8.1,47,0.00,CLR,OVC,0.00,WeatherDisplay:10.37,2013-07-06 06:27:00,
2013-07-06 01:32:00,77.2,56.0,26.89,SE,135,6.9,6.9,48,0.00,CLR,OVC,0.00,WeatherDisplay:10.37,2013-07-06 06:32:00,
2013-07-06 01:37:00,77.0,55.8,26.89,South,180,5.8,5.8,48,0.00,CLR,OVC,0.00,WeatherDisplay:10.37,2013-07-06 06:37:00,
2013-07-06 01:42:00,76.8,56.2,26.89,South,180,6.9,6.9,49,0.00,CLR,OVC,0.00,WeatherDisplay:10.37,2013-07-06 06:42:00,
2013-07-06 01:47:00,76.6,56.0,26.89,South,180,5.8,5.8,49,0.00,CLR,OVC,0.00,WeatherDisplay:10.37,2013-07-06 06:47:00,
2013-07-06 01:52:00,76.6,56.0,26.89,South,180,5.8,5.8,49,0.00,CLR,OVC,0.00,WeatherDisplay:10.37,2013-07-06 06:52:00,
2013-07-06 01:57:00,76.6,55.5,26.89,South,180,9.2,9.2,48,0.00,CLR,OVC,0.00,WeatherDisplay:10.37,2013-07-06 06:57:00,
2013-07-06 02:02:00,76.6,55.5,26.89,East,90,6.9,6.9,48,0.00,CLR,OVC,0.00,WeatherDisplay:10.37,2013-07-06 07:02:00,
2013-07-06 02:07:00,76.6,55.5,26.88,SE,135,5.8,5.8,48,0.00,CLR,OVC,0.00,WeatherDisplay:10.37,2013-07-06 07:07:00,
2013-07-06 02:12:00,76.5,55.9,26.88,South,180,5.8,5.8,49,0.00,CLR,OVC,0.00,WeatherDisplay:10.37,2013-07-06 07:12:00,
2013-07-06 02:17:00,76.3,55.7,26.88,SSE,158,6.9,6.9,49,0.00,CLR,OVC,0.00,WeatherDisplay:10.37,2013-07-06 07:17:00,
2013-07-06 02:22:00,76.1,55.5,26.88,SE,135,4.6,4.6,49,0.00,CLR,OVC,0.00,WeatherDisplay:10.37,2013-07-06 07:22:00,
2013-07-06 02:27:00,75.9,55.4,26.88,South,180,5.8,5.8,49,0.00,CLR,OVC,0.00,WeatherDisplay:10.37,2013-07-06 07:27:00,
2013-07-06 02:32:00,75.7,55.2,26.88,SE,135,5.8,5.8,49,0.00,CLR,OVC,0.00,WeatherDisplay:10.37,2013-07-06 07:32:00,
2013-07-06 02:37:00,75.6,55.6,26.88,South,180,8.1,8.1,50,0.00,CLR,OVC,0.00,WeatherDisplay:10.37,2013-07-06 07:37:00,
2013-07-06 02:42:00,75.4,55.4,26.88,SE,135,3.5,3.5,50,0.00,CLR,OVC,0.00,WeatherDisplay:10.37,2013-07-06 07:42:00,
2013-07-06 02:47:00,75.4,55.4,26.88,SE,135,6.9,6.9,50,0.00,CLR,OVC,0.00,WeatherDisplay:10.37,2013-07-06 07:47:00,
2013-07-06 02:52:00,75.2,55.8,26.88,SSE,158,5.8,5.8,51,0.00,CLR,OVC,0.00,WeatherDisplay:10.37,2013-07-06 07:52:00,
2013-07-06 02:57:00,75.0,56.7,26.88,SE,135,5.8,5.8,53,0.00,CLR,OVC,0.00,WeatherDisplay:10.37,2013-07-06 07:57:00,
2013-07-06 03:02:00,75.2,56.4,26.88,SE,135,4.6,4.6,52,0.00,CLR,OVC,0.00,WeatherDisplay:10.37,2013-07-06 08:02:00,
2013-07-06 03:07:00,75.2,56.4,26.88,SE,135,4.6,4.6,52,0.00,CLR,OVC,0.00,WeatherDisplay:10.37,2013-07-06 08:07:00,
2013-07-06 03:12:00,75.4,57.1,26.88,South,180,8.1,8.1,53,0.00,CLR,OVC,0.00,WeatherDisplay:10.37,2013-07-06 08:12:00,
2013-07-06 03:17:00,75.6,57.7,26.88,SE,135,6.9,6.9,54,0.00,CLR,OVC,0.00,WeatherDisplay:10.37,2013-07-06 08:17:00,
2013-07-06 03:23:00,75.6,57.7,26.87,SE,135,8.1,8.1,54,0.00,CLR,OVC,0.00,WeatherDisplay:10.37,2013-07-06 08:23:00,
2013-07-06 03:27:00,75.6,57.7,26.88,South,180,5.8,5.8,54,0.00,CLR,OVC,0.00,WeatherDisplay:10.37,2013-07-06 08:27:00,
2013-07-06 03:33:00,75.6,57.7,26.88,SE,135,8.1,8.1,54,0.00,CLR,OVC,0.00,WeatherDisplay:10.37,2013-07-06 08:33:00,
2013-07-06 03:38:00,75.6,57.7,26.88,SW,225,9.2,9.2,54,0.00,CLR,OVC,0.00,WeatherDisplay:10.37,2013-07-06 08:38:00,
2013-07-06 03:43:00,75.4,58.1,26.88,SSE,158,5.8,5.8,55,0.00,CLR,OVC,0.00,WeatherDisplay:10.37,2013-07-06 08:43:00,
2013-07-06 03:48:00,75.4,58.1,26.88,East,90,10.4,10.4,55,0.00,CLR,OVC,0.00,WeatherDisplay:10.37,2013-07-06 08:48:00,
2013-07-06 03:53:00,75.4,58.1,26.88,South,180,6.9,6.9,55,0.00,CLR,OVC,0.00,WeatherDisplay:10.37,2013-07-06 08:53:00,
2013-07-06 03:58:00,75.2,57.4,26.88,SE,135,8.1,8.1,54,0.00,CLR,OVC,0.00,WeatherDisplay:10.37,2013-07-06 08:58:00,
2013-07-06 04:03:00,75.2,57.9,26.88,SE,135,3.5,3.5,55,0.00,CLR,OVC,0.00,WeatherDisplay:10.37,2013-07-06 09:03:00,
2013-07-06 04:08:00,75.0,57.8,26.88,SSE,158,3.5,3.5,55,0.00,CLR,OVC,0.00,WeatherDisplay:10.37,2013-07-06 09:08:00,
2013-07-06 04:13:00,74.8,58.1,26.88,East,90,5.8,5.8,56,0.00,CLR,OVC,0.00,WeatherDisplay:10.37,2013-07-06 09:13:00,
2013-07-06 04:18:00,74.8,57.6,26.88,South,180,5.8,5.8,55,0.00,CLR,OVC,0.00,WeatherDisplay:10.37,2013-07-06 09:18:00,
2013-07-06 04:23:00,74.8,57.6,26.88,SE,135,5.8,5.8,55,0.00,CLR,OVC,0.00,WeatherDisplay:10.37,2013-07-06 09:23:00,
2013-07-06 04:28:00,74.8,57.6,26.88,SE,135,3.5,3.5,55,0.00,CLR,OVC,0.00,WeatherDisplay:10.37,2013-07-06 09:28:00,
2013-07-06 04:33:00,74.7,57.4,26.88,East,90,5.8,5.8,55,0.00,CLR,OVC,0.00,WeatherDisplay:10.37,2013-07-06 09:33:00,
2013-07-06 04:38:00,74.7,57.4,26.88,South,180,3.5,3.5,55,0.00,CLR,OVC,0.00,WeatherDisplay:10.37,2013-07-06 09:38:00,
2013-07-06 04:43:00,74.3,57.1,26.88,SE,135,2.3,0.0,55,0.00,CLR,OVC,0.00,WeatherDisplay:10.37,2013-07-06 09:43:00,
2013-07-06 04:48:00,74.3,57.1,26.89,NE,45,2.3,2.3,55,0.00,CLR,OVC,0.00,WeatherDisplay:10.37,2013-07-06 09:48:00,
2013-07-06 04:53:00,73.9,56.8,26.89,North,0,1.1,0.0,55,0.00,CLR,OVC,0.00,WeatherDisplay:10.37,2013-07-06 09:53:00,
2013-07-06 04:58:00,73.6,56.9,26.89,North,0,0.0,0.0,56,0.00,CLR,OVC,0.00,WeatherDisplay:10.37,2013-07-06 09:58:00,
2013-07-06 05:03:00,73.4,56.7,26.89,SE,135,0.0,0.0,56,0.00,CLR,OVC,0.00,WeatherDisplay:10.37,2013-07-06 10:03:00,
2013-07-06 05:08:00,73.4,56.7,26.89,SE,135,0.0,0.0,56,0.00,CLR,OVC,0.00,WeatherDisplay:10.37,2013-07-06 10:08:00,
2013-07-06 05:13:00,72.5,56.9,26.89,South,180,1.1,1.1,58,0.00,CLR,OVC,0.00,WeatherDisplay:10.37,2013-07-06 10:13:00,
2013-07-06 05:18:00,72.0,56.4,26.89,SE,135,2.3,2.3,58,0.00,CLR,OVC,0.00,WeatherDisplay:10.37,2013-07-06 10:18:00,
2013-07-06 05:23:00,71.8,56.7,26.88,SE,135,3.5,3.5,59,0.00,CLR,OVC,0.00,WeatherDisplay:10.37,2013-07-06 10:23:00,
2013-07-06 05:28:00,71.6,56.5,26.89,SE,135,1.1,0.0,59,0.00,CLR,OVC,0.00,WeatherDisplay:10.37,2013-07-06 10:28:00,
2013-07-06 05:33:00,71.2,56.6,26.89,South,180,1.1,0.0,60,0.00,CLR,OVC,0.00,WeatherDisplay:10.37,2013-07-06 10:33:00,
2013-07-06 05:38:00,71.1,56.5,26.89,SE,135,1.1,1.1,60,0.00,CLR,OVC,0.00,WeatherDisplay:10.37,2013-07-06 10:38:00,
2013-07-06 05:43:00,70.9,56.8,26.89,South,180,3.5,3.5,61,0.00,CLR,OVC,0.00,WeatherDisplay:10.37,2013-07-06 10:43:00,
2013-07-06 05:48:00,70.5,56.4,26.88,East,90,3.5,3.5,61,0.00,CLR,OVC,0.00,WeatherDisplay:10.37,2013-07-06 10:48:00,
2013-07-06 05:53:00,70.5,56.4,26.89,North,0,1.1,0.0,61,0.00,CLR,OVC,0.00,WeatherDisplay:10.37,2013-07-06 10:53:00,
2013-07-06 05:58:00,70.3,56.7,26.90,NE,45,1.1,0.0,62,0.00,CLR,OVC,0.00,WeatherDisplay:10.37,2013-07-06 10:58:00,
2013-07-06 06:03:00,70.2,56.5,26.90,East,90,1.1,0.0,62,0.00,CLR,OVC,0.00,WeatherDisplay:10.37,2013-07-06 11:03:00,
2013-07-06 06:08:00,69.8,56.6,26.90,East,90,0.0,0.0,63,0.00,CLR,OVC,0.00,WeatherDisplay:10.37,2013-07-06 11:08:00,
2013-07-06 06:13:00,69.6,57.3,26.90,SW,225,0.0,0.0,65,0.00,CLR,OVC,0.00,WeatherDisplay:10.37,2013-07-06 11:13:00,
2013-07-06 06:18:00,69.3,57.4,26.90,South,180,2.3,2.3,66,0.00,CLR,OVC,0.00,WeatherDisplay:10.37,2013-07-06 11:18:00,
2013-07-06 06:23:00,68.7,57.3,26.90,South,180,0.0,0.0,67,0.00,CLR,OVC,0.00,WeatherDisplay:10.37,2013-07-06 11:23:00,
2013-07-06 06:28:00,68.5,56.7,26.89,East,90,0.0,0.0,66,0.00,CLR,OVC,0.00,WeatherDisplay:10.37,2013-07-06 11:28:00,
2013-07-06 06:33:00,68.5,56.7,26.90,North,0,0.0,0.0,66,0.00,CLR,OVC,0.00,WeatherDisplay:10.37,2013-07-06 11:33:00,
2013-07-06 06:38:00,68.4,56.6,26.90,West,270,0.0,0.0,66,0.00,CLR,OVC,0.00,WeatherDisplay:10.37,2013-07-06 11:38:00,
2013-07-06 06:43:00,68.4,57.0,26.90,South,180,2.3,2.3,67,0.00,CLR,OVC,0.00,WeatherDisplay:10.37,2013-07-06 11:43:00,
2013-07-06 06:48:00,68.5,57.6,26.90,SE,135,1.1,0.0,68,0.00,CLR,OVC,0.00,WeatherDisplay:10.37,2013-07-06 11:48:00,
2013-07-06 06:53:00,68.5,58.0,26.91,SW,225,1.1,0.0,69,0.00,CLR,OVC,0.00,WeatherDisplay:10.37,2013-07-06 11:53:00,
2013-07-06 06:58:00,68.5,57.6,26.91,SE,135,0.0,0.0,68,0.00,CLR,OVC,0.00,WeatherDisplay:10.37,2013-07-06 11:58:00,
2013-07-06 07:03:00,68.5,58.0,26.91,SE,135,0.0,0.0,69,0.00,CLR,OVC,0.00,WeatherDisplay:10.37,2013-07-06 12:03:00,
2013-07-06 07:08:00,68.5,58.0,26.91,NW,315,0.0,0.0,69,0.00,CLR,OVC,0.00,WeatherDisplay:10.37,2013-07-06 12:08:00,
2013-07-06 07:13:00,68.5,58.0,26.91,NW,315,0.0,0.0,69,0.00,CLR,OVC,0.00,WeatherDisplay:10.37,2013-07-06 12:13:00,
2013-07-06 07:18:00,68.5,58.4,26.91,East,90,0.0,0.0,70,0.00,CLR,OVC,0.00,WeatherDisplay:10.37,2013-07-06 12:18:00,
2013-07-06 07:23:00,68.7,58.5,26.91,SE,135,0.0,0.0,70,0.00,CLR,OVC,0.00,WeatherDisplay:10.37,2013-07-06 12:23:00,
2013-07-06 07:28:00,68.9,58.7,26.91,SE,135,0.0,0.0,70,0.00,CLR,OVC,0.00,WeatherDisplay:10.37,2013-07-06 12:28:00,
2013-07-06 07:33:00,69.1,58.9,26.91,SE,135,0.0,0.0,70,0.00,CLR,OVC,0.00,WeatherDisplay:10.37,2013-07-06 12:33:00,
2013-07-06 07:38:00,69.3,59.1,26.91,South,180,1.1,0.0,70,0.00,CLR,OVC,0.00,WeatherDisplay:10.37,2013-07-06 12:38:00,
2013-07-06 07:43:00,69.4,59.2,26.91,NW,315,0.0,0.0,70,0.00,CLR,OVC,0.00,WeatherDisplay:10.37,2013-07-06 12:43:00,
2013-07-06 07:48:00,69.4,59.2,26.91,SE,135,1.1,0.0,70,0.00,CLR,OVC,0.00,WeatherDisplay:10.37,2013-07-06 12:48:00,
2013-07-06 07:53:00,69.8,58.8,26.91,SE,135,1.1,0.0,68,0.00,CLR,OVC,0.00,WeatherDisplay:10.37,2013-07-06 12:53:00,
2013-07-06 07:58:00,70.0,58.5,26.90,SE,135,0.0,0.0,67,0.00,CLR,OVC,0.00,WeatherDisplay:10.37,2013-07-06 12:58:00,
2013-07-06 08:03:00,70.3,58.9,26.90,SE,135,0.0,0.0,67,0.00,CLR,OVC,0.00,WeatherDisplay:10.37,2013-07-06 13:03:00,
2013-07-06 08:08:00,70.7,58.8,26.91,SE,135,0.0,0.0,66,0.00,CLR,OVC,0.00,WeatherDisplay:10.37,2013-07-06 13:08:00,
2013-07-06 08:13:00,71.2,59.3,26.91,East,90,1.1,0.0,66,0.00,CLR,OVC,0.00,WeatherDisplay:10.37,2013-07-06 13:13:00,
2013-07-06 08:18:00,71.6,58.8,26.91,East,90,0.0,0.0,64,0.00,CLR,OVC,0.00,WeatherDisplay:10.37,2013-07-06 13:18:00,
2013-07-06 08:23:00,72.0,59.1,26.91,SE,135,0.0,0.0,64,0.00,CLR,OVC,0.00,WeatherDisplay:10.37,2013-07-06 13:23:00,
2013-07-06 08:28:00,72.5,58.7,26.90,NE,45,2.3,2.3,62,0.00,CLR,OVC,0.00,WeatherDisplay:10.37,2013-07-06 13:28:00,
2013-07-06 08:33:00,73.2,59.0,26.90,SE,135,0.0,0.0,61,0.00,CLR,OVC,0.00,WeatherDisplay:10.37,2013-07-06 13:33:00,
2013-07-06 08:38:00,75.4,60.1,26.90,NE,45,0.0,0.0,59,0.00,CLR,OVC,0.00,WeatherDisplay:10.37,2013-07-06 13:38:00,
2013-07-06 08:43:00,78.3,61.3,26.91,North,0,0.0,0.0,56,0.00,CLR,OVC,0.00,WeatherDisplay:10.37,2013-07-06 13:43:00,
2013-07-06 08:48:00,80.6,60.8,26.91,NE,45,0.0,0.0,51,0.00,CLR,OVC,0.00,WeatherDisplay:10.37,2013-07-06 13:48:00,
2013-07-06 08:53:00,82.4,60.7,26.91,North,0,1.1,0.0,48,0.00,CLR,OVC,0.00,WeatherDisplay:10.37,2013-07-06 13:53:00,
2013-07-06 08:58:00,82.9,60.0,26.91,North,0,2.3,0.0,46,0.00,CLR,OVC,0.00,WeatherDisplay:10.37,2013-07-06 13:58:00,
2013-07-06 09:03:00,82.8,60.5,26.91,NE,45,0.0,0.0,47,0.00,CLR,OVC,0.00,WeatherDisplay:10.37,2013-07-06 14:03:00,
2013-07-06 09:09:00,83.8,60.8,26.90,North,0,1.1,0.0,46,0.00,CLR,OVC,0.00,WeatherDisplay:10.37,2013-07-06 14:09:00,
2013-07-06 09:14:00,84.2,60.6,26.90,North,0,2.3,0.0,45,0.00,CLR,OVC,0.00,WeatherDisplay:10.37,2013-07-06 14:14:00,
2013-07-06 09:19:00,84.7,61.0,26.90,North,0,3.5,0.0,45,0.00,CLR,OVC,0.00,WeatherDisplay:10.37,2013-07-06 14:19:00,
2013-07-06 09:24:00,84.7,61.7,26.90,North,0,1.1,1.1,46,0.00,CLR,OVC,0.00,WeatherDisplay:10.37,2013-07-06 14:24:00,
2013-07-06 09:29:00,85.5,61.7,26.90,NW,315,1.1,1.1,45,0.00,CLR,OVC,0.00,WeatherDisplay:10.37,2013-07-06 14:29:00,
2013-07-06 09:34:00,84.7,61.0,26.90,NNW,338,2.3,0.0,45,0.00,CLR,OVC,0.00,WeatherDisplay:10.37,2013-07-06 14:34:00,
2013-07-06 09:39:00,85.1,62.0,26.90,North,0,2.3,2.3,46,0.00,CLR,OVC,0.00,WeatherDisplay:10.37,2013-07-06 14:39:00,
2013-07-06 09:44:00,85.5,61.7,26.90,South,180,1.1,0.0,45,0.00,CLR,OVC,0.00,WeatherDisplay:10.37,2013-07-06 14:44:00,
2013-07-06 09:49:00,86.2,63.0,26.90,SE,135,1.1,0.0,46,0.00,CLR,OVC,0.00,WeatherDisplay:10.37,2013-07-06 14:49:00,
2013-07-06 09:54:00,87.3,62.7,26.90,NE,45,1.1,0.0,44,0.00,CLR,OVC,0.00,WeatherDisplay:10.37,2013-07-06 14:54:00,
2013-07-06 09:59:00,88.2,62.8,26.91,East,90,1.1,0.0,43,0.00,CLR,OVC,0.00,WeatherDisplay:10.37,2013-07-06 14:59:00,
2013-07-06 10:04:00,88.5,63.8,26.91,North,0,2.3,0.0,44,0.00,CLR,OVC,0.00,WeatherDisplay:10.37,2013-07-06 15:04:00,
2013-07-06 10:09:00,88.9,63.5,26.91,NE,45,2.3,2.3,43,0.00,CLR,OVC,0.00,WeatherDisplay:10.37,2013-07-06 15:09:00,
2013-07-06 10:14:00,88.3,62.3,26.91,NE,45,2.3,2.3,42,0.00,CLR,OVC,0.00,WeatherDisplay:10.37,2013-07-06 15:14:00,
2013-07-06 10:19:00,87.4,62.8,26.91,NW,315,1.1,1.1,44,0.00,CLR,OVC,0.00,WeatherDisplay:10.37,2013-07-06 15:19:00,
2013-07-06 10:24:00,87.3,62.7,26.91,North,0,2.3,0.0,44,0.00,CLR,OVC,0.00,WeatherDisplay:10.37,2013-07-06 15:24:00,
2013-07-06 10:29:00,87.3,63.3,26.91,NE,45,1.1,1.1,45,0.00,CLR,OVC,0.00,WeatherDisplay:10.37,2013-07-06 15:29:00,
2013-07-06 10:34:00,87.6,63.0,26.91,North,0,1.1,0.0,44,0.00,CLR,OVC,0.00,WeatherDisplay:10.37,2013-07-06 15:34:00,
2013-07-06 10:39:00,87.8,62.5,26.91,NW,315,4.6,4.6,43,0.00,CLR,OVC,0.00,WeatherDisplay:10.37,2013-07-06 15:39:00,
2013-07-06 10:44:00,87.3,62.7,26.91,North,0,4.6,4.6,44,0.00,CLR,OVC,0.00,WeatherDisplay:10.37,2013-07-06 15:44:00,
2013-07-06 10:49:00,86.5,62.0,26.91,North,0,4.6,0.0,44,0.00,CLR,OVC,0.00,WeatherDisplay:10.37,2013-07-06 15:49:00,
2013-07-06 10:54:00,86.7,62.8,26.91,North,0,3.5,3.5,45,0.00,CLR,OVC,0.00,WeatherDisplay:10.37,2013-07-06 15:54:00,
2013-07-06 10:59:00,87.1,62.5,26.91,East,90,1.1,0.0,44,0.00,CLR,OVC,0.00,WeatherDisplay:10.37,2013-07-06 15:59:00,
2013-07-06 11:05:00,87.3,63.3,26.91,NW,315,1.1,1.1,45,0.00,CLR,OVC,0.00,WeatherDisplay:10.37,2013-07-06 16:05:00,
2013-07-06 11:10:00,88.7,62.7,26.91,NW,315,1.1,0.0,42,0.00,CLR,OVC,0.00,WeatherDisplay:10.37,2013-07-06 16:10:00,
2013-07-06 11:15:00,89.6,62.8,26.91,North,0,3.5,3.5,41,0.00,CLR,OVC,0.00,WeatherDisplay:10.37,2013-07-06 16:15:00,
2013-07-06 11:20:00,89.6,62.8,26.91,NW,315,1.1,0.0,41,0.00,CLR,OVC,0.00,WeatherDisplay:10.37,2013-07-06 16:20:00,
2013-07-06 11:25:00,89.2,63.1,26.91,North,0,3.5,3.5,42,0.00,CLR,OVC,0.00,WeatherDisplay:10.37,2013-07-06 16:25:00,
2013-07-06 11:31:00,89.1,63.0,26.91,North,0,2.3,2.3,42,0.00,CLR,OVC,0.00,WeatherDisplay:10.37,2013-07-06 16:31:00,
2013-07-06 11:36:00,89.2,63.1,26.92,SW,225,3.5,3.5,42,0.00,CLR,OVC,0.00,WeatherDisplay:10.37,2013-07-06 16:36:00,
2013-07-06 11:43:00,91.9,66.9,26.91,NW,315,3.5,3.5,44,0.00,CLR,OVC,0.00,WeatherDisplay:10.37,2013-07-06 16:43:00,
2013-07-06 11:48:00,92.8,64.2,26.91,NW,315,3.5,0.0,39,0.00,CLR,OVC,0.00,WeatherDisplay:10.37,2013-07-06 16:48:00,
2013-07-06 11:54:00,92.5,64.6,26.92,North,0,3.5,3.5,40,0.00,CLR,OVC,0.00,WeatherDisplay:10.37,2013-07-06 16:54:00,
2013-07-06 12:01:00,92.8,65.7,26.92,NW,315,3.5,3.5,41,0.00,CLR,OVC,0.00,WeatherDisplay:10.37,2013-07-06 17:01:00,
2013-07-06 12:06:00,92.7,63.3,26.91,NW,315,3.5,3.5,38,0.00,CLR,OVC,0.00,WeatherDisplay:10.37,2013-07-06 17:06:00,
2013-07-06 12:11:00,92.5,63.9,26.92,North,0,2.3,0.0,39,0.00,CLR,OVC,0.00,WeatherDisplay:10.37,2013-07-06 17:11:00,
2013-07-06 12:17:00,93.7,63.5,26.91,SW,225,3.5,3.5,37,0.00,CLR,OVC,0.00,WeatherDisplay:10.37,2013-07-06 17:17:00,
2013-07-06 12:22:00,95.2,64.0,26.91,NW,315,3.5,3.5,36,0.00,CLR,OVC,0.00,WeatherDisplay:10.37,2013-07-06 17:22:00,
2013-07-06 12:27:00,95.4,64.2,26.92,South,180,1.1,0.0,36,0.00,CLR,OVC,0.00,WeatherDisplay:10.37,2013-07-06 17:27:00,
2013-07-06 12:33:00,96.6,65.3,26.91,NW,315,1.1,0.0,36,0.00,CLR,OVC,0.00,WeatherDisplay:10.37,2013-07-06 17:33:00,
2013-07-06 12:38:00,97.3,64.3,26.91,WNW,292,3.5,3.5,34,0.00,CLR,OVC,0.00,WeatherDisplay:10.37,2013-07-06 17:38:00,
2013-07-06 12:43:00,97.3,63.4,26.91,SW,225,5.8,0.0,33,0.00,CLR,OVC,0.00,WeatherDisplay:10.37,2013-07-06 17:43:00,
2013-07-06 12:49:00,97.2,63.3,26.91,NW,315,4.6,0.0,33,0.00,CLR,OVC,0.00,WeatherDisplay:10.37,2013-07-06 17:49:00,
2013-07-06 12:54:00,97.3,64.3,26.91,NE,45,3.5,3.5,34,0.00,CLR,OVC,0.00,WeatherDisplay:10.37,2013-07-06 17:54:00,
2013-07-06 12:59:00,98.6,63.6,26.92,South,180,3.5,3.5,32,0.00,CLR,OVC,0.00,WeatherDisplay:10.37,2013-07-06 17:59:00,
2013-07-06 13:05:00,99.1,64.1,26.91,NNW,338,1.1,1.1,32,0.00,CLR,OVC,0.00,WeatherDisplay:10.37,2013-07-06 18:05:00,
2013-07-06 13:10:00,97.7,62.9,26.91,North,0,5.8,0.0,32,0.00,CLR,OVC,0.00,WeatherDisplay:10.37,2013-07-06 18:10:00,
2013-07-06 13:16:00,98.1,63.2,26.91,NW,315,5.8,5.8,32,0.00,CLR,OVC,0.00,WeatherDisplay:10.37,2013-07-06 18:16:00,
2013-07-06 13:21:00,97.9,63.0,26.91,NE,45,9.2,9.2,32,0.00,CLR,OVC,0.00,WeatherDisplay:10.37,2013-07-06 18:21:00,
2013-07-06 13:26:00,97.0,62.2,26.91,NW,315,12.7,12.7,32,0.00,CLR,OVC,0.00,WeatherDisplay:10.37,2013-07-06 18:26:00,
2013-07-06 13:31:00,96.6,62.8,26.91,West,270,3.5,3.5,33,0.00,CLR,OVC,0.00,WeatherDisplay:10.37,2013-07-06 18:31:00,
2013-07-06 13:36:00,96.4,62.6,26.91,NW,315,8.1,8.1,33,0.00,CLR,OVC,0.00,WeatherDisplay:10.37,2013-07-06 18:36:00,
2013-07-06 13:42:00,96.8,63.0,26.91,NW,315,3.5,5.4,33,0.00,CLR,OVC,0.00,WeatherDisplay:10.37,2013-07-06 18:42:00,
2013-07-06 13:47:00,97.2,63.3,26.90,North,0,4.6,4.6,33,0.00,CLR,OVC,0.00,WeatherDisplay:10.37,2013-07-06 18:47:00,
2013-07-06 13:52:00,97.0,62.2,26.91,North,0,12.7,12.7,32,0.00,CLR,OVC,0.00,WeatherDisplay:10.37,2013-07-06 18:52:00,
2013-07-06 13:58:00,96.3,62.5,26.91,NW,315,6.9,6.9,33,0.00,CLR,OVC,0.00,WeatherDisplay:10.37,2013-07-06 18:58:00,
2013-07-06 14:03:00,96.1,63.2,26.90,SW,225,3.5,0.0,34,0.00,CLR,OVC,0.00,WeatherDisplay:10.37,2013-07-06 19:03:00,
2013-07-06 14:08:00,96.4,62.6,26.91,NW,315,3.5,3.5,33,0.00,CLR,OVC,0.00,WeatherDisplay:10.37,2013-07-06 19:08:00,
2013-07-06 14:14:00,96.4,62.6,26.90,NW,315,4.6,4.6,33,0.00,CLR,OVC,0.00,WeatherDisplay:10.37,2013-07-06 19:14:00,
2013-07-06 14:19:00,96.6,62.8,26.90,NW,315,10.4,10.4,33,0.00,CLR,OVC,0.00,WeatherDisplay:10.37,2013-07-06 19:19:00,
2013-07-06 14:25:00,96.6,62.8,26.91,North,0,3.5,7.6,33,0.00,CLR,OVC,0.00,WeatherDisplay:10.37,2013-07-06 19:25:00,
2013-07-06 14:31:00,96.3,62.5,26.90,North,0,5.8,5.8,33,0.00,CLR,OVC,0.00,WeatherDisplay:10.37,2013-07-06 19:31:00,
2013-07-06 14:36:00,96.1,62.3,26.90,North,0,8.1,8.1,33,0.00,CLR,OVC,0.00,WeatherDisplay:10.37,2013-07-06 19:36:00,
2013-07-06 14:43:00,96.1,63.2,26.90,NW,315,8.1,8.1,34,0.00,CLR,OVC,0.00,WeatherDisplay:10.37,2013-07-06 19:43:00,
2013-07-06 14:48:00,96.1,62.3,26.90,North,0,8.1,8.1,33,0.00,CLR,OVC,0.00,WeatherDisplay:10.37,2013-07-06 19:48:00,
2013-07-06 14:53:00,96.1,62.3,26.90,NW,315,5.8,5.8,33,0.00,CLR,OVC,0.00,WeatherDisplay:10.37,2013-07-06 19:53:00,
2013-07-06 14:58:00,96.1,62.3,26.91,NW,315,8.1,8.1,33,0.00,CLR,OVC,0.00,WeatherDisplay:10.37,2013-07-06 19:58:00,
2013-07-06 15:05:00,95.9,62.2,26.90,NW,315,3.5,3.5,33,0.00,CLR,OVC,0.00,WeatherDisplay:10.37,2013-07-06 20:05:00,
2013-07-06 15:10:00,96.3,62.5,26.91,South,180,8.1,8.1,33,0.00,CLR,OVC,0.00,WeatherDisplay:10.37,2013-07-06 20:10:00,
2013-07-06 15:15:00,96.4,62.6,26.91,North,0,4.6,4.6,33,0.00,CLR,OVC,0.00,WeatherDisplay:10.37,2013-07-06 20:15:00,
2013-07-06 15:20:00,96.6,61.0,26.91,NW,315,10.4,10.4,31,0.00,CLR,OVC,0.00,WeatherDisplay:10.37,2013-07-06 20:20:00,
2013-07-06 15:25:00,97.0,61.3,26.91,North,0,5.8,5.8,31,0.00,CLR,OVC,0.00,WeatherDisplay:10.37,2013-07-06 20:25:00,
2013-07-06 15:31:00,96.8,59.3,26.90,NW,315,3.5,3.5,29,0.00,CLR,OVC,0.00,WeatherDisplay:10.37,2013-07-06 20:31:00,
2013-07-06 15:37:00,96.8,61.2,26.90,West,270,5.8,5.8,31,0.00,CLR,OVC,0.00,WeatherDisplay:10.37,2013-07-06 20:37:00,
2013-07-06 15:42:00,97.3,60.7,26.91,West,270,3.5,3.5,30,0.00,CLR,OVC,0.00,WeatherDisplay:10.37,2013-07-06 20:42:00,
2013-07-06 15:47:00,97.2,58.6,26.91,NW,315,5.8,5.8,28,0.00,CLR,OVC,0.00,WeatherDisplay:10.37,2013-07-06 20:47:00,
2013-07-06 15:54:00,97.2,60.6,26.91,NNW,338,4.6,4.6,30,0.00,CLR,OVC,0.00,WeatherDisplay:10.37,2013-07-06 20:54:00,
2013-07-06 16:00:00,97.2,60.6,26.90,North,0,10.4,10.4,30,0.00,CLR,OVC,0.00,WeatherDisplay:10.37,2013-07-06 21:00:00,
2013-07-06 16:05:00,97.3,61.6,26.90,NW,315,8.1,8.1,31,0.00,CLR,OVC,0.00,WeatherDisplay:10.37,2013-07-06 21:05:00,
2013-07-06 16:11:00,97.5,60.9,26.90,North,0,4.6,4.6,30,0.00,CLR,OVC,0.00,WeatherDisplay:10.37,2013-07-06 21:11:00,
2013-07-06 16:16:00,97.5,59.9,26.90,NW,315,9.2,9.2,29,0.00,CLR,OVC,0.00,WeatherDisplay:10.37,2013-07-06 21:16:00,
2013-07-06 16:21:00,97.2,60.6,26.90,NW,315,5.8,5.8,30,0.00,CLR,OVC,0.00,WeatherDisplay:10.37,2013-07-06 21:21:00,
2013-07-06 16:26:00,97.3,61.6,26.90,NW,315,5.8,5.8,31,0.00,CLR,OVC,0.00,WeatherDisplay:10.37,2013-07-06 21:26:00,
2013-07-06 16:33:00,97.2,61.5,26.90,NE,45,3.5,3.5,31,0.00,CLR,OVC,0.00,WeatherDisplay:10.37,2013-07-06 21:33:00,
2013-07-06 16:38:00,97.3,59.8,26.90,NW,315,8.1,8.1,29,0.00,CLR,OVC,0.00,WeatherDisplay:10.37,2013-07-06 21:38:00,
2013-07-06 16:45:00,97.2,60.6,26.90,North,0,5.8,5.8,30,0.00,CLR,OVC,0.00,WeatherDisplay:10.37,2013-07-06 21:45:00,
2013-07-06 16:50:00,97.0,57.5,26.90,North,0,5.8,5.8,27,0.00,CLR,OVC,0.00,WeatherDisplay:10.37,2013-07-06 21:50:00,
2013-07-06 16:55:00,97.2,57.6,26.90,NW,315,2.3,2.3,27,0.00,CLR,OVC,0.00,WeatherDisplay:10.37,2013-07-06 21:55:00,
2013-07-06 17:01:00,97.2,60.6,26.89,NW,315,2.3,2.3,30,0.00,CLR,OVC,0.00,WeatherDisplay:10.37,2013-07-06 22:01:00,
2013-07-06 17:06:00,97.2,60.6,26.90,NW,315,2.3,2.3,30,0.00,CLR,OVC,0.00,WeatherDisplay:10.37,2013-07-06 22:06:00,
2013-07-06 17:11:00,97.5,58.9,26.90,NW,315,5.8,5.8,28,0.00,CLR,OVC,0.00,WeatherDisplay:10.37,2013-07-06 22:11:00,
2013-07-06 17:17:00,97.7,57.0,26.90,NNW,338,8.1,8.1,26,0.00,CLR,OVC,0.00,WeatherDisplay:10.37,2013-07-06 22:17:00,
2013-07-06 17:22:00,97.5,55.8,26.89,NNW,338,5.8,5.8,25,0.00,CLR,OVC,0.00,WeatherDisplay:10.37,2013-07-06 22:22:00,
2013-07-06 17:27:00,97.5,57.9,26.89,NW,315,3.5,3.5,27,0.00,CLR,OVC,0.00,WeatherDisplay:10.37,2013-07-06 22:27:00,
2013-07-06 17:33:00,97.7,58.1,26.89,North,0,5.8,5.8,27,0.00,CLR,OVC,0.00,WeatherDisplay:10.37,2013-07-06 22:33:00,
2013-07-06 17:40:00,97.9,58.2,26.89,North,0,2.3,2.3,27,0.00,CLR,OVC,0.00,WeatherDisplay:10.37,2013-07-06 22:40:00,
2013-07-06 17:45:00,97.9,57.2,26.89,NW,315,2.3,0.0,26,0.00,CLR,OVC,0.00,WeatherDisplay:10.37,2013-07-06 22:45:00,
2013-07-06 17:50:00,97.7,58.1,26.90,NW,315,2.3,2.3,27,0.00,CLR,OVC,0.00,WeatherDisplay:10.37,2013-07-06 22:50:00,
2013-07-06 17:56:00,97.5,57.9,26.89,North,0,4.5,4.5,27,0.00,CLR,OVC,0.00,WeatherDisplay:10.37,2013-07-06 22:56:00,
2013-07-06 18:01:00,97.3,58.8,26.89,NW,315,3.5,0.0,28,0.00,CLR,OVC,0.00,WeatherDisplay:10.37,2013-07-06 23:01:00,
2013-07-06 18:07:00,97.5,58.9,26.89,NW,315,3.5,3.5,28,0.00,CLR,OVC,0.00,WeatherDisplay:10.37,2013-07-06 23:07:00,
2013-07-06 18:13:00,97.3,58.8,26.89,NW,315,5.8,5.8,28,0.00,CLR,OVC,0.00,WeatherDisplay:10.37,2013-07-06 23:13:00,
2013-07-06 18:18:00,97.2,57.6,26.89,WNW,292,3.5,3.5,27,0.00,CLR,OVC,0.00,WeatherDisplay:10.37,2013-07-06 23:18:00,
2013-07-06 18:23:00,97.0,57.5,26.89,NW,315,2.3,2.3,27,0.00,CLR,OVC,0.00,WeatherDisplay:10.37,2013-07-06 23:23:00,
2013-07-06 18:28:00,97.2,59.6,26.89,NW,315,1.1,1.1,29,0.00,CLR,OVC,0.00,WeatherDisplay:10.37,2013-07-06 23:28:00,
2013-07-06 18:35:00,97.2,56.6,26.89,NNW,338,3.5,3.5,26,0.00,CLR,OVC,0.00,WeatherDisplay:10.37,2013-07-06 23:35:00,
2013-07-06 18:40:00,97.2,57.6,26.89,North,0,3.5,3.5,27,0.00,CLR,OVC,0.00,WeatherDisplay:10.37,2013-07-06 23:40:00,
2013-07-06 18:46:00,97.2,58.6,26.89,NW,315,2.3,2.3,28,0.00,CLR,OVC,0.00,WeatherDisplay:10.37,2013-07-06 23:46:00,
2013-07-06 18:52:00,97.0,58.5,26.88,North,0,3.5,3.5,28,0.00,CLR,OVC,0.00,WeatherDisplay:10.37,2013-07-06 23:52:00,
2013-07-06 18:57:00,97.0,59.5,26.89,North,0,1.1,0.0,29,0.00,CLR,OVC,0.00,WeatherDisplay:10.37,2013-07-06 23:57:00,
2013-07-06 19:02:00,97.0,59.5,26.89,North,0,1.1,0.0,29,0.00,CLR,OVC,0.00,WeatherDisplay:10.37,2013-07-07 00:02:00,
2013-07-06 19:08:00,97.0,59.5,26.88,North,0,1.1,2.2,29,0.00,CLR,OVC,0.00,WeatherDisplay:10.37,2013-07-07 00:08:00,
2013-07-06 19:13:00,97.0,59.5,26.89,NW,315,6.9,6.9,29,0.00,CLR,OVC,0.00,WeatherDisplay:10.37,2013-07-07 00:13:00,
2013-07-06 19:18:00,96.6,59.1,26.88,NW,315,3.5,3.5,29,0.00,CLR,OVC,0.00,WeatherDisplay:10.37,2013-07-07 00:18:00,
2013-07-06 19:24:00,96.4,58.0,26.88,NW,315,5.8,5.8,28,0.00,CLR,OVC,0.00,WeatherDisplay:10.37,2013-07-07 00:24:00,
2013-07-06 19:30:00,96.3,57.9,26.88,North,0,4.6,4.6,28,0.00,CLR,OVC,0.00,WeatherDisplay:10.37,2013-07-07 00:30:00,
2013-07-06 19:35:00,96.3,57.9,26.88,NW,315,2.3,0.0,28,0.00,CLR,OVC,0.00,WeatherDisplay:10.37,2013-07-07 00:35:00,
2013-07-06 19:40:00,96.3,57.9,26.88,NW,315,0.0,0.0,28,0.00,CLR,OVC,0.00,WeatherDisplay:10.37,2013-07-07 00:40:00,
2013-07-06 19:46:00,96.1,58.7,26.88,North,0,2.3,2.3,29,0.00,CLR,OVC,0.00,WeatherDisplay:10.37,2013-07-07 00:46:00,
2013-07-06 19:52:00,95.9,59.5,26.88,NW,315,0.0,0.0,30,0.00,CLR,OVC,0.00,WeatherDisplay:10.37,2013-07-07 00:52:00,
2013-07-06 19:57:00,95.7,59.3,26.89,North,0,3.5,0.0,30,0.00,CLR,OVC,0.00,WeatherDisplay:10.37,2013-07-07 00:57:00,
2013-07-06 20:02:00,95.4,61.7,26.88,North,0,2.3,0.0,33,0.00,CLR,OVC,0.00,WeatherDisplay:10.37,2013-07-07 01:02:00,
2013-07-06 20:08:00,94.8,62.1,26.89,North,0,0.0,0.0,34,0.00,CLR,OVC,0.00,WeatherDisplay:10.37,2013-07-07 01:08:00,
2013-07-06 20:13:00,94.3,61.6,26.89,North,0,1.1,0.0,34,0.00,CLR,OVC,0.00,WeatherDisplay:10.37,2013-07-07 01:13:00,
2013-07-06 20:19:00,93.9,61.3,26.89,North,0,0.0,0.0,34,0.00,CLR,OVC,0.00,WeatherDisplay:10.37,2013-07-07 01:19:00,
2013-07-06 20:24:00,93.6,61.8,26.89,North,0,0.0,0.7,35,0.00,CLR,OVC,0.00,WeatherDisplay:10.37,2013-07-07 01:24:00,
2013-07-06 20:31:00,93.2,61.5,26.89,North,0,0.0,0.0,35,0.00,CLR,OVC,0.00,WeatherDisplay:10.37,2013-07-07 01:31:00,
2013-07-06 20:36:00,92.8,62.0,26.89,NNW,338,1.1,1.1,36,0.00,CLR,OVC,0.00,WeatherDisplay:10.37,2013-07-07 01:36:00,
2013-07-06 20:41:00,92.3,61.5,26.89,North,0,1.1,0.0,36,0.00,CLR,OVC,0.00,WeatherDisplay:10.37,2013-07-07 01:41:00,
2013-07-06 20:47:00,92.1,61.3,26.89,North,0,0.0,0.0,36,0.00,CLR,OVC,0.00,WeatherDisplay:10.37,2013-07-07 01:47:00,
2013-07-06 20:53:00,91.6,60.9,26.90,North,0,0.0,0.0,36,0.00,CLR,OVC,0.00,WeatherDisplay:10.37,2013-07-07 01:53:00,
2013-07-06 20:58:00,91.0,58.8,26.90,NW,315,2.3,0.0,34,0.00,CLR,OVC,0.00,WeatherDisplay:10.37,2013-07-07 01:58:00,
2013-07-06 21:05:00,91.0,58.8,26.90,North,0,1.1,0.0,34,0.00,CLR,OVC,0.00,WeatherDisplay:10.37,2013-07-07 02:05:00,
2013-07-06 21:12:00,90.1,58.8,26.90,NW,315,0.0,0.0,35,0.00,CLR,OVC,0.00,WeatherDisplay:10.37,2013-07-07 02:12:00,
2013-07-06 21:18:00,89.6,59.9,26.90,NW,315,0.0,0.0,37,0.00,CLR,OVC,0.00,WeatherDisplay:10.37,2013-07-07 02:18:00,
2013-07-06 21:23:00,89.1,63.0,26.90,NW,315,0.0,0.0,42,0.00,CLR,OVC,0.00,WeatherDisplay:10.37,2013-07-07 02:23:00,
2013-07-06 21:28:00,88.3,62.3,26.91,NW,315,0.0,0.0,42,0.00,CLR,OVC,0.00,WeatherDisplay:10.37,2013-07-07 02:28:00,
2013-07-06 21:33:00,87.8,61.9,26.91,NW,315,0.0,0.0,42,0.00,CLR,OVC,0.00,WeatherDisplay:10.37,2013-07-07 02:33:00,
2013-07-06 21:39:00,87.3,62.7,26.91,NW,315,0.0,0.0,44,0.00,CLR,OVC,0.00,WeatherDisplay:10.37,2013-07-07 02:39:00,
2013-07-06 21:44:00,86.7,62.8,26.91,NE,45,0.0,0.0,45,0.00,CLR,OVC,0.00,WeatherDisplay:10.37,2013-07-07 02:44:00,
2013-07-06 21:49:00,86.0,61.5,26.92,SW,225,1.1,0.0,44,0.00,CLR,OVC,0.00,WeatherDisplay:10.37,2013-07-07 02:49:00,
2013-07-06 21:55:00,85.5,62.3,26.92,West,270,0.0,0.0,46,0.00,CLR,OVC,0.00,WeatherDisplay:10.37,2013-07-07 02:55:00,
2013-07-06 22:00:00,85.1,62.0,26.92,SW,225,0.0,0.0,46,0.00,CLR,OVC,0.00,WeatherDisplay:10.37,2013-07-07 03:00:00,
2013-07-06 22:05:00,84.9,61.8,26.92,SW,225,0.0,0.0,46,0.00,CLR,OVC,0.00,WeatherDisplay:10.37,2013-07-07 03:05:00,
2013-07-06 22:12:00,84.4,61.3,26.93,SW,225,1.1,0.0,46,0.00,CLR,OVC,0.00,WeatherDisplay:10.37,2013-07-07 03:12:00,
2013-07-06 22:19:00,84.0,61.6,26.93,SW,225,0.0,0.0,47,0.00,CLR,OVC,0.00,WeatherDisplay:10.37,2013-07-07 03:19:00,
2013-07-06 22:24:00,83.7,61.3,26.94,SE,135,0.0,0.0,47,0.00,CLR,OVC,0.00,WeatherDisplay:10.37,2013-07-07 03:24:00,
2013-07-06 22:30:00,83.1,61.4,26.93,East,90,1.1,0.0,48,0.00,CLR,OVC,0.00,WeatherDisplay:10.37,2013-07-07 03:30:00,
2013-07-06 22:35:00,82.9,61.2,26.93,SW,225,1.1,1.1,48,0.00,CLR,OVC,0.00,WeatherDisplay:10.37,2013-07-07 03:35:00,
2013-07-06 22:41:00,82.6,60.9,26.93,SW,225,0.0,0.0,48,0.00,CLR,OVC,0.00,WeatherDisplay:10.37,2013-07-07 03:41:00,
2013-07-06 22:47:00,82.2,61.2,26.93,SW,225,0.0,0.0,49,0.00,CLR,OVC,0.00,WeatherDisplay:10.37,2013-07-07 03:47:00,
2013-07-06 22:52:00,82.2,61.7,26.94,SW,225,0.0,0.0,50,0.00,CLR,OVC,0.00,WeatherDisplay:10.37,2013-07-07 03:52:00,
2013-07-06 22:57:00,81.9,61.4,26.94,North,0,0.0,0.0,50,0.00,CLR,OVC,0.00,WeatherDisplay:10.37,2013-07-07 03:57:00,
2013-07-06 23:01:00,81.9,61.4,26.94,SE,135,0.0,0.0,50,0.00,CLR,OVC,0.00,WeatherDisplay:10.37,2013-07-07 04:01:00,
2013-07-06 23:06:00,81.9,61.4,26.94,SE,135,0.0,0.0,50,0.00,CLR,OVC,0.00,WeatherDisplay:10.37,2013-07-07 04:06:00,
2013-07-06 23:11:00,81.5,61.6,26.94,East,90,0.0,0.0,51,0.00,CLR,OVC,0.00,WeatherDisplay:10.37,2013-07-07 04:11:00,
2013-07-06 23:16:00,81.3,62.0,26.94,SW,225,1.1,0.0,52,0.00,CLR,OVC,0.00,WeatherDisplay:10.37,2013-07-07 04:16:00,
2013-07-06 23:21:00,81.3,62.0,26.94,SW,225,0.0,0.0,52,0.00,CLR,OVC,0.00,WeatherDisplay:10.37,2013-07-07 04:21:00,
2013-07-06 23:26:00,81.1,61.8,26.94,NW,315,0.0,0.0,52,0.00,CLR,OVC,0.00,WeatherDisplay:10.37,2013-07-07 04:26:00,
2013-07-06 23:31:00,81.0,62.2,26.94,NW,315,0.0,0.0,53,0.00,CLR,OVC,0.00,WeatherDisplay:10.37,2013-07-07 04:31:00,
2013-07-06 23:36:00,80.8,62.1,26.94,SW,225,3.5,0.0,53,0.00,CLR,OVC,0.00,WeatherDisplay:10.37,2013-07-07 04:36:00,
2013-07-06 23:41:00,80.8,62.1,26.95,West,270,0.0,0.0,53,0.00,CLR,OVC,0.00,WeatherDisplay:10.37,2013-07-07 04:41:00,
2013-07-06 23:46:00,80.6,61.9,26.94,NW,315,0.0,0.0,53,0.00,CLR,OVC,0.00,WeatherDisplay:10.37,2013-07-07 04:46:00,
2013-07-06 23:51:00,80.4,62.2,26.94,SW,225,0.0,0.0,54,0.00,CLR,OVC,0.00,WeatherDisplay:10.37,2013-07-07 04:51:00,
2013-07-06 23:56:00,80.1,62.4,26.95,NE,45,3.5,3.5,55,0.00,CLR,OVC,0.00,WeatherDisplay:10.37,2013-07-07 04:56:00,